Time;durP1;ratioP1;P1;durP2;ratioP2;P2;SDS_P1;SDS_P2;PMS_P1;PMS_P2;Temp;Humidity;BMP_temperature;BMP_pressure;BME280_temperature;BME280_humidity;BME280_pressure;Samples;Min_cycle;Max_cycle;Signal;HPM_P1;HPM_P2
2022/04/24 00:02:45;;;;;;;5.45;0.70;;;;;;;6.89;80.09;94405.38;10447817;27;96880;-64
2022/04/24 00:07:49;;;;;;;4.03;2.15;;;;;;;6.84;79.76;94403.28;10447291;27;99001;-64
2022/04/24 00:12:51;;;;;;;1.42;0.93;;;;;;;6.76;80.06;94396.34;10452617;27;97233;-64
2022/04/24 00:17:56;;;;;;;1.65;0.65;;;;;;;6.76;80.08;94400.72;10446741;27;96873;-64
2022/04/24 00:22:58;;;;;;;2.22;0.65;;;;;;;6.85;79.45;94410.13;10435734;27;101760;-64
2022/04/24 00:28:02;;;;;;;2.20;0.60;;;;;;;7.05;78.83;94409.72;10440490;27;98704;-64
2022/04/24 00:33:06;;;;;;;1.20;0.50;;;;;;;7.10;78.40;94412.59;10441615;27;97261;-64
2022/04/24 00:38:09;;;;;;;2.70;0.70;;;;;;;7.17;78.15;94413.53;10443754;27;96807;-64
2022/04/24 00:43:12;;;;;;;1.95;0.50;;;;;;;7.34;78.07;94422.03;10445201;27;96719;-64
2022/04/24 00:48:17;;;;;;;3.60;0.93;;;;;;;7.40;77.85;94421.34;10444833;27;96858;-64
2022/04/24 00:53:40;;;;;;;1.55;0.80;;;;;;;7.31;78.32;94432.75;10419918;27;96899;-64
2022/04/24 00:58:43;;;;;;;1.42;0.70;;;;;;;7.26;78.86;94438.47;10445973;27;99781;-64
2022/04/24 01:03:48;;;;;;;1.55;0.65;;;;;;;7.26;78.61;94443.66;10435740;27;96809;-65
2022/04/24 01:08:50;;;;;;;1.03;0.60;;;;;;;7.34;78.94;94440.22;10426707;27;96958;-64
2022/04/24 01:13:53;;;;;;;4.25;0.60;;;;;;;7.34;78.47;94435.03;10418037;27;97075;-65
2022/04/24 01:18:58;;;;;;;2.22;0.55;;;;;;;7.13;78.88;94418.25;10432921;27;97002;-64
2022/04/24 01:24:05;;;;;;;1.48;0.55;;;;;;;7.06;79.20;94400.94;10429022;27;96920;-64
2022/04/24 01:29:09;;;;;;;0.77;0.57;;;;;;;7.05;78.76;94388.94;10444602;27;97494;-64
2022/04/24 01:34:12;;;;;;;1.05;0.82;;;;;;;6.95;79.00;94405.50;10425585;27;97107;-64
2022/04/24 01:39:17;;;;;;;0.65;0.57;;;;;;;7.00;79.06;94394.63;10445608;27;98402;-65
2022/04/24 01:44:20;;;;;;;1.40;0.83;;;;;;;6.98;78.99;94388.81;10446240;27;100875;-65
2022/04/24 01:49:22;;;;;;;1.80;0.82;;;;;;;6.94;78.77;94392.72;10428186;27;96941;-65
2022/04/24 01:54:27;;;;;;;1.83;1.00;;;;;;;6.85;78.96;94400.53;10454970;27;96713;-64
2022/04/24 01:59:29;;;;;;;1.30;0.80;;;;;;;6.93;79.15;94407.44;10426327;27;96683;-64
2022/04/24 02:04:32;;;;;;;0.70;0.60;;;;;;;7.01;78.89;94404.06;10429086;27;97354;-64
2022/04/24 02:09:38;;;;;;;0.80;0.75;;;;;;;7.03;79.09;94395.09;10430435;27;97039;-65
2022/04/24 02:14:41;;;;;;;1.95;0.70;;;;;;;6.99;79.05;94406.03;10430978;27;97290;-64
2022/04/24 02:19:44;;;;;;;2.25;0.75;;;;;;;6.83;79.29;94397.31;10442575;27;96703;-64
2022/04/24 02:24:49;;;;;;;2.15;0.70;;;;;;;6.81;79.83;94409.63;10448173;27;97297;-64
2022/04/24 02:29:51;;;;;;;1.58;0.90;;;;;;;6.90;79.35;94412.19;10429779;27;96684;-64
2022/04/24 02:34:54;;;;;;;0.98;0.80;;;;;;;6.97;79.33;94423.53;10428642;27;97039;-64
2022/04/24 02:39:59;;;;;;;1.65;0.80;;;;;;;6.95;79.44;94415.88;10425250;27;98329;-64
2022/04/24 02:45:01;;;;;;;1.35;0.60;;;;;;;7.03;79.63;94415.88;10427185;27;98181;-64
2022/04/24 02:50:05;;;;;;;1.10;0.73;;;;;;;7.05;79.46;94407.13;10442215;27;97032;-64
2022/04/24 02:55:10;;;;;;;0.98;0.68;;;;;;;7.04;79.24;94408.88;10430838;27;96787;-64
2022/04/24 03:00:19;;;;;;;3.10;0.75;;;;;;;7.08;79.46;94410.19;10427028;27;96709;-65
2022/04/24 03:05:24;;;;;;;1.23;0.30;;;;;;;7.07;79.17;94405.16;10433539;27;96900;-64
2022/04/24 03:10:29;;;;;;;0.70;0.53;;;;;;;7.10;79.02;94413.41;10444167;27;97160;-64
2022/04/24 03:15:32;;;;;;;0.25;0.25;;;;;;;7.14;78.94;94419.88;10438029;27;96828;-64
2022/04/24 03:20:35;;;;;;;0.75;0.40;;;;;;;7.13;78.86;94417.47;10432006;27;97180;-65
2022/04/24 03:25:39;;;;;;;0.90;0.55;;;;;;;7.10;78.86;94418.59;10424517;27;102439;-64
2022/04/24 03:30:42;;;;;;;1.27;0.43;;;;;;;7.11;78.71;94417.63;10429618;27;97076;-64
2022/04/24 03:35:45;;;;;;;1.80;0.38;;;;;;;7.16;78.96;94422.28;10438716;27;96747;-64
2022/04/24 03:40:49;;;;;;;0.63;0.43;;;;;;;7.17;78.97;94422.13;10419945;27;97409;-64
2022/04/24 03:45:52;;;;;;;0.20;0.20;;;;;;;7.20;78.90;94424.38;10422066;27;96964;-64
2022/04/24 03:50:54;;;;;;;0.55;0.40;;;;;;;7.16;78.78;94430.09;10433740;27;96855;-65
2022/04/24 03:55:59;;;;;;;1.52;0.32;;;;;;;7.15;78.44;94431.88;10429318;27;96965;-64
2022/04/24 04:01:02;;;;;;;0.30;0.20;;;;;;;7.19;78.56;94440.94;10441319;27;96885;-64
2022/04/24 04:06:05;;;;;;;0.75;0.40;;;;;;;7.22;78.72;94445.78;10432249;27;96771;-64
2022/04/24 04:11:09;;;;;;;0.80;0.40;;;;;;;7.19;78.53;94438.34;10422742;27;96791;-64
2022/04/24 04:16:12;;;;;;;0.57;0.25;;;;;;;7.21;78.70;94432.97;10419075;27;96730;-64
2022/04/24 04:21:15;;;;;;;1.02;0.43;;;;;;;7.25;78.54;94436.03;10417001;27;96868;-64
2022/04/24 04:26:19;;;;;;;1.05;0.35;;;;;;;7.22;78.92;94435.41;10438596;27;96830;-64
2022/04/24 04:31:22;;;;;;;0.50;0.40;;;;;;;7.19;78.93;94443.53;10419124;27;96954;-64
2022/04/24 04:36:25;;;;;;;0.70;0.43;;;;;;;7.24;78.73;94455.22;10417029;27;96729;-64
2022/04/24 04:41:29;;;;;;;1.55;0.30;;;;;;;7.31;78.67;94461.34;10426586;27;97857;-64
2022/04/24 04:46:32;;;;;;;0.40;0.32;;;;;;;7.32;78.32;94470.72;10424165;27;98638;-64
2022/04/24 04:51:35;;;;;;;0.85;0.40;;;;;;;7.17;79.04;94481.84;10431947;27;97350;-64
2022/04/24 04:56:40;;;;;;;2.00;0.38;;;;;;;7.18;78.82;94488.69;10452954;27;103088;-64
2022/04/24 05:01:42;;;;;;;1.02;0.60;;;;;;;7.23;78.30;94495.94;10431242;27;96884;-64
2022/04/24 05:06:45;;;;;;;0.68;0.40;;;;;;;7.09;78.90;94492.28;10425477;27;96800;-65
2022/04/24 05:11:50;;;;;;;1.05;0.30;;;;;;;7.09;78.63;94499.25;10426391;27;96783;-64
2022/04/24 05:16:52;;;;;;;0.50;0.25;;;;;;;7.03;78.83;94492.97;10446221;27;96771;-64
2022/04/24 05:21:55;;;;;;;0.70;0.63;;;;;;;7.13;78.76;94498.75;10428787;27;96891;-64
2022/04/24 05:27:00;;;;;;;0.30;0.30;;;;;;;7.22;78.15;94495.13;10424460;27;96860;-64
2022/04/24 05:32:03;;;;;;;1.40;0.38;;;;;;;7.35;77.88;94504.16;10432408;27;96868;-64
2022/04/24 05:37:06;;;;;;;0.35;0.30;;;;;;;7.38;77.81;94511.63;10424815;27;96988;-64
2022/04/24 05:42:11;;;;;;;0.30;0.30;;;;;;;7.49;77.87;94529.44;10425033;27;96798;-64
2022/04/24 05:47:14;;;;;;;1.13;0.60;;;;;;;7.60;77.75;94544.63;10445500;27;97770;-64
2022/04/24 05:52:17;;;;;;;0.88;0.60;;;;;;;7.69;77.83;94547.19;10432052;27;96840;-65
2022/04/24 05:57:21;;;;;;;1.25;0.68;;;;;;;7.69;77.64;94547.19;10439521;27;97262;-65
2022/04/24 06:02:24;;;;;;;0.90;0.47;;;;;;;7.74;77.53;94560.50;10426731;27;96918;-64
2022/04/24 06:07:28;;;;;;;0.68;0.40;;;;;;;7.89;77.61;94553.56;10443503;27;97251;-64
2022/04/24 06:12:32;;;;;;;1.85;0.50;;;;;;;8.02;77.31;94562.59;10439658;27;96806;-64
2022/04/24 06:17:36;;;;;;;;;;;;;;;8.09;76.93;94564.31;10426976;27;97435;-64
2022/04/24 06:22:43;;;;;;;1.40;0.50;;;;;;;8.16;76.87;94565.22;10444083;27;96938;-64
2022/04/24 06:27:49;;;;;;;0.80;0.60;;;;;;;8.27;77.04;94571.81;10422869;27;97379;-64
2022/04/24 06:32:52;;;;;;;1.30;0.50;;;;;;;8.34;76.80;94580.56;10439920;27;96844;-64
2022/04/24 06:37:56;;;;;;;0.50;0.47;;;;;;;8.37;77.44;94587.19;10430540;27;97479;-64
2022/04/24 06:43:01;;;;;;;1.77;0.85;;;;;;;8.56;76.87;94593.72;10444477;27;103395;-64
2022/04/24 06:48:06;;;;;;;0.80;0.60;;;;;;;8.64;76.61;94598.06;10442852;27;97840;-64
2022/04/24 06:53:11;;;;;;;1.48;0.70;;;;;;;8.72;76.20;94605.78;10430380;27;97994;-64
2022/04/24 06:58:17;;;;;;;0.82;0.50;;;;;;;8.76;76.42;94601.03;10427090;27;98600;-64
2022/04/24 07:03:21;;;;;;;0.98;0.57;;;;;;;8.83;76.44;94612.34;10437230;27;97100;-64
2022/04/24 07:08:25;;;;;;;;;;;;;;;8.87;76.52;94618.84;10426739;27;98421;-64
2022/04/24 07:13:29;;;;;;;1.13;0.70;;;;;;;8.97;75.92;94623.78;10425488;27;96908;-64
2022/04/24 07:18:32;;;;;;;0.80;0.60;;;;;;;9.00;75.74;94629.47;10422285;27;96773;-64
2022/04/24 07:23:35;;;;;;;0.95;0.40;;;;;;;9.17;75.94;94622.28;10423333;27;100689;-64
2022/04/24 07:28:39;;;;;;;0.75;0.40;;;;;;;9.46;75.08;94624.09;10422169;27;96861;-64
2022/04/24 07:33:42;;;;;;;1.33;0.40;;;;;;;9.69;74.28;94625.78;10436265;27;96897;-64
2022/04/24 07:38:45;;;;;;;1.67;0.30;;;;;;;9.87;74.10;94630.66;10418632;27;97041;-64
2022/04/24 07:43:50;;;;;;;1.15;0.30;;;;;;;10.11;74.53;94628.69;10420483;27;96726;-64
2022/04/24 07:48:52;;;;;;;0.40;0.30;;;;;;;10.19;73.62;94628.59;10438132;27;96850;-64
2022/04/24 07:53:55;;;;;;;0.43;0.10;;;;;;;10.44;72.59;94642.06;10431508;27;96843;-64
2022/04/24 07:59:00;;;;;;;0.10;0.10;;;;;;;10.79;72.13;94634.34;10423996;27;96964;-64
2022/04/24 08:04:02;;;;;;;0.47;0.30;;;;;;;11.11;70.71;94637.44;10426468;27;96936;-64
2022/04/24 08:09:06;;;;;;;0.28;0.28;;;;;;;11.39;71.24;94641.84;10418596;27;100412;-64
2022/04/24 08:14:10;;;;;;;0.88;0.30;;;;;;;11.55;69.07;94649.38;10419331;27;96831;-64
2022/04/24 08:19:13;;;;;;;2.17;0.43;;;;;;;11.71;69.89;94651.69;10422059;27;97338;-64
2022/04/24 08:24:19;;;;;;;0.70;0.20;;;;;;;11.83;69.51;94653.75;10434625;27;97285;-65
2022/04/24 08:29:23;;;;;;;1.63;0.30;;;;;;;11.97;68.25;94659.84;10418996;27;97072;-64
2022/04/24 08:34:26;;;;;;;0.23;0.10;;;;;;;11.99;67.21;94656.06;10421623;27;100471;-65
2022/04/24 08:39:32;;;;;;;1.35;0.20;;;;;;;12.15;68.63;94664.56;10435159;27;96895;-64
2022/04/24 08:44:37;;;;;;;0.75;0.40;;;;;;;12.27;66.62;94673.47;10431936;27;98080;-65
2022/04/24 08:49:41;;;;;;;0.75;0.22;;;;;;;12.42;66.65;94676.75;10444206;27;96951;-64
2022/04/24 08:54:45;;;;;;;0.33;0.20;;;;;;;12.10;65.38;94671.19;10438009;27;96879;-64
2022/04/24 08:59:49;;;;;;;2.20;0.15;;;;;;;12.00;65.15;94672.56;10437545;27;97078;-64
2022/04/24 09:05:13;;;;;;;0.10;0.10;;;;;;;11.78;65.58;94677.06;10424083;27;96808;-64
2022/04/24 09:10:17;;;;;;;0.80;0.20;;;;;;;11.80;65.73;94682.91;10432122;27;101473;-64
2022/04/24 09:15:23;;;;;;;0.38;0.20;;;;;;;11.87;64.37;94689.00;10442869;27;97222;-64
2022/04/24 09:20:28;;;;;;;0.10;0.10;;;;;;;11.86;65.55;94695.22;10434722;27;96992;-64
2022/04/24 09:25:41;;;;;;;0.20;0.20;;;;;;;11.43;64.20;94698.00;10422580;27;96788;-64
2022/04/24 09:30:51;;;;;;;0.20;0.20;;;;;;;11.42;63.95;94701.63;10442745;27;96735;-64
2022/04/24 09:35:55;;;;;;;0.60;0.30;;;;;;;11.32;63.99;94702.75;10438294;27;96906;-64
2022/04/24 09:40:59;;;;;;;0.20;0.17;;;;;;;11.37;63.23;94702.19;10456639;27;97005;-64
2022/04/24 09:46:03;;;;;;;0.52;0.10;;;;;;;11.56;64.47;94708.53;10450444;27;97101;-64
2022/04/24 09:51:08;;;;;;;0.20;0.20;;;;;;;11.86;63.79;94708.31;10458124;27;96779;-64
2022/04/24 09:56:12;;;;;;;0.10;0.10;;;;;;;12.35;63.92;94717.78;10447947;27;96893;-64
2022/04/24 10:01:17;;;;;;;0.10;0.10;;;;;;;12.67;62.28;94721.53;10447369;27;97035;-64
2022/04/24 10:06:22;;;;;;;0.57;0.30;;;;;;;12.98;61.29;94729.91;10451466;27;96958;-64
2022/04/24 10:11:25;;;;;;;0.20;0.17;;;;;;;13.13;59.70;94722.63;10453093;27;97093;-64
2022/04/24 10:16:59;;;;;;;0.10;0.10;;;;;;;13.21;59.90;94734.75;10443562;27;96700;-64
2022/04/24 10:22:07;;;;;;;0.20;0.17;;;;;;;13.21;60.68;94735.56;10453450;27;98108;-64
2022/04/24 10:27:11;;;;;;;0.20;0.13;;;;;;;13.00;58.16;94741.78;10457355;27;96823;-64
2022/04/24 10:32:25;;;;;;;;;;;;;;;12.77;59.31;94747.34;10442098;27;97894;-64
2022/04/24 10:37:30;;;;;;;0.20;0.10;;;;;;;12.69;60.28;94744.91;10446142;27;96756;-64
2022/04/24 10:42:35;;;;;;;0.55;0.28;;;;;;;12.40;60.11;94762.53;10450357;27;97321;-64
2022/04/24 10:47:55;;;;;;;0.17;0.17;;;;;;;12.32;60.81;94765.34;10448700;27;96874;-64
2022/04/24 10:52:58;;;;;;;0.20;0.10;;;;;;;12.24;60.04;94768.13;10445028;27;96942;-64
2022/04/24 10:58:03;;;;;;;0.15;0.15;;;;;;;12.25;60.58;94765.31;10445116;27;100601;-64
2022/04/24 11:03:13;;;;;;;0.35;0.20;;;;;;;12.34;59.97;94776.41;10446620;27;97099;-64
2022/04/24 11:08:20;;;;;;;0.70;0.20;;;;;;;12.26;59.14;94777.38;10439903;27;96974;-64
2022/04/24 11:13:23;;;;;;;0.57;0.20;;;;;;;12.32;59.74;94775.81;10439135;27;96940;-64
2022/04/24 11:18:28;;;;;;;1.10;0.10;;;;;;;12.35;60.88;94780.63;10447939;27;97591;-64
2022/04/24 11:23:33;;;;;;;1.35;0.20;;;;;;;12.27;60.61;94788.69;10442903;27;97255;-64
2022/04/24 11:28:37;;;;;;;0.30;0.20;;;;;;;12.17;60.32;94788.22;10429801;27;96901;-64
2022/04/24 11:33:53;;;;;;;0.28;0.20;;;;;;;11.97;60.31;94778.44;10415617;27;97179;-64
2022/04/24 11:38:57;;;;;;;0.40;0.30;;;;;;;12.03;61.66;94793.38;10438507;27;97097;-64
2022/04/24 11:44:02;;;;;;;0.57;0.20;;;;;;;12.08;60.58;94801.44;10448335;27;101438;-64
2022/04/24 11:54:30;;;;;;;0.10;0.10;;;;;;;12.56;58.99;94813.81;10431781;27;96784;-64
2022/04/24 11:59:35;;;;;;;0.30;0.30;;;;;;;12.62;59.91;94817.44;10423693;27;99812;-64
2022/04/24 12:04:40;;;;;;;0.20;0.20;;;;;;;12.37;61.30;94815.31;10436867;27;98086;-65
2022/04/24 12:09:43;;;;;;;0.17;0.17;;;;;;;12.27;62.20;94828.75;10431939;27;98263;-64
2022/04/24 12:14:49;;;;;;;0.50;0.32;;;;;;;12.10;62.35;94827.44;10431372;27;98906;-64
2022/04/24 12:19:55;;;;;;;1.08;0.30;;;;;;;12.22;60.62;94827.72;10447794;27;97160;-65
2022/04/24 12:25:08;;;;;;;0.30;0.30;;;;;;;12.65;61.25;94830.16;10440684;27;99201;-64
2022/04/24 12:30:11;;;;;;;0.52;0.40;;;;;;;12.85;60.93;94833.63;10423738;27;97787;-64
2022/04/24 12:35:30;;;;;;;1.02;0.38;;;;;;;12.73;59.24;94840.44;10423599;27;96876;-64
2022/04/24 12:40:32;;;;;;;0.77;0.40;;;;;;;12.42;60.73;94836.50;10417746;27;99229;-64
2022/04/24 12:45:36;;;;;;;0.47;0.35;;;;;;;12.38;60.88;94848.34;10425046;27;97577;-64
2022/04/24 12:50:40;;;;;;;1.58;0.32;;;;;;;12.59;60.07;94846.63;10436489;27;96843;-64
2022/04/24 12:55:43;;;;;;;0.73;0.30;;;;;;;12.85;59.43;94846.75;10418738;27;97157;-65
2022/04/24 13:00:47;;;;;;;1.15;0.40;;;;;;;12.82;60.82;94846.34;10432526;27;97117;-64
2022/04/24 13:05:52;;;;;;;1.33;0.50;;;;;;;12.67;61.17;94846.50;10424357;27;97655;-60
2022/04/24 13:11:00;;;;;;;0.50;0.30;;;;;;;12.71;61.47;94847.69;10422509;27;98568;-61
2022/04/24 13:21:26;;;;;;;0.38;0.30;;;;;;;12.55;61.20;94853.28;10436031;27;96987;-64
2022/04/24 13:26:29;;;;;;;0.77;0.40;;;;;;;12.62;60.31;94860.16;10433831;27;97710;-71
2022/04/24 13:31:32;;;;;;;2.50;0.30;;;;;;;12.77;60.37;94867.06;10440675;27;98989;-60
2022/04/24 13:36:37;;;;;;;0.40;0.30;;;;;;;13.05;61.11;94861.78;10433128;27;98754;-62
2022/04/24 13:41:46;;;;;;;1.30;0.50;;;;;;;13.12;60.34;94865.25;10453088;27;98541;-59
2022/04/24 13:46:55;;;;;;;1.75;0.40;;;;;;;13.06;60.86;94863.38;10440402;27;98037;-70
2022/04/24 13:51:59;;;;;;;1.02;0.47;;;;;;;13.00;60.73;94862.38;10437490;27;99119;-69
2022/04/24 13:57:03;;;;;;;0.75;0.50;;;;;;;13.17;61.40;94868.06;10442101;27;100844;-64
2022/04/24 14:02:07;;;;;;;0.40;0.40;;;;;;;13.44;59.68;94874.16;10442021;27;97649;-60
2022/04/24 14:07:12;;;;;;;0.50;0.50;;;;;;;13.51;60.24;94873.38;10445257;27;98410;-61
2022/04/24 14:12:15;;;;;;;1.65;0.55;;;;;;;13.67;60.32;94862.50;10449883;27;98471;-64
2022/04/24 14:17:18;;;;;;;0.70;0.50;;;;;;;13.98;59.08;94875.06;10453649;27;98342;-59
2022/04/24 14:22:22;;;;;;;0.70;0.40;;;;;;;13.97;59.27;94873.44;10440583;27;98450;-64
2022/04/24 14:27:25;;;;;;;0.93;0.60;;;;;;;13.86;60.33;94876.66;10436948;27;99982;-62
2022/04/24 14:32:28;;;;;;;1.08;0.50;;;;;;;13.92;58.92;94870.59;10431915;27;97152;-76
2022/04/24 14:37:32;;;;;;;1.75;0.40;;;;;;;14.15;57.96;94877.25;10437021;27;98376;-68
2022/04/24 14:42:35;;;;;;;0.87;0.50;;;;;;;14.24;58.30;94893.63;10440064;27;98615;-66
2022/04/24 14:58:22;;;;;;;0.80;0.40;;;;;;;13.87;61.57;94888.78;10440375;27;97611;-64
2022/04/24 15:03:26;;;;;;;0.85;0.40;;;;;;;13.85;60.24;94906.53;10439251;27;96910;-66
2022/04/24 15:08:31;;;;;;;0.73;0.40;;;;;;;13.89;59.87;94907.75;10439298;27;99899;-66
2022/04/24 15:13:34;;;;;;;0.80;0.47;;;;;;;13.78;61.67;94922.28;10447083;27;97272;-66
2022/04/24 15:18:37;;;;;;;0.50;0.40;;;;;;;13.65;62.30;94922.25;10443884;27;98185;-67
2022/04/24 15:23:48;;;;;;;0.60;0.40;;;;;;;13.47;62.88;94930.69;10444609;27;98022;-67
2022/04/24 15:28:52;;;;;;;0.50;0.30;;;;;;;13.39;61.63;94933.50;10442658;27;99155;-67
2022/04/24 15:33:57;;;;;;;0.75;0.30;;;;;;;13.32;62.10;94940.53;10443323;27;98132;-67
2022/04/24 15:39:01;;;;;;;0.50;0.30;;;;;;;13.16;61.32;94928.56;10448019;27;97224;-67
2022/04/24 15:44:04;;;;;;;0.67;0.43;;;;;;;13.05;62.77;94936.00;10444218;27;96984;-66
2022/04/24 15:49:07;;;;;;;1.02;0.47;;;;;;;13.10;62.71;94943.28;10440567;27;97452;-67
2022/04/24 15:54:11;;;;;;;0.50;0.40;;;;;;;12.96;61.64;94945.03;10450466;27;97266;-67
2022/04/24 15:59:14;;;;;;;0.90;0.70;;;;;;;12.96;62.07;94954.69;10438617;27;97920;-67
2022/04/24 16:04:17;;;;;;;0.88;0.68;;;;;;;12.88;61.36;94948.56;10446781;27;96845;-67
2022/04/24 16:09:21;;;;;;;0.43;0.35;;;;;;;12.87;60.78;94957.47;10445367;27;96951;-67
2022/04/24 16:14:25;;;;;;;0.32;0.30;;;;;;;12.88;61.10;94968.75;10444091;27;100173;-67
2022/04/24 16:19:28;;;;;;;0.20;0.20;;;;;;;12.84;60.79;94970.16;10429708;27;97266;-67
2022/04/24 16:24:33;;;;;;;0.33;0.30;;;;;;;12.75;61.61;94971.28;10442317;27;97280;-67
2022/04/24 16:29:56;;;;;;;0.60;0.20;;;;;;;12.66;61.61;94971.41;10438270;27;96835;-66
2022/04/24 16:35:00;;;;;;;0.80;0.40;;;;;;;12.55;62.37;94989.50;10424005;27;97456;-67
2022/04/24 16:40:07;;;;;;;0.65;0.25;;;;;;;12.41;61.83;94993.81;10432526;27;97276;-67
2022/04/24 16:45:10;;;;;;;0.73;0.40;;;;;;;12.32;61.98;94987.91;10439020;27;96746;-67
2022/04/24 16:58:44;;;;;;;0.50;0.43;;;;;;;12.17;63.14;94997.66;10439210;27;97252;-67
2022/04/24 17:00:59;;;;;;;0.43;0.30;;;;;;;12.09;63.18;95009.88;10427766;27;98425;-67
2022/04/24 17:06:02;;;;;;;0.75;0.40;;;;;;;12.10;63.35;95014.09;10435759;27;98779;-67
2022/04/24 17:11:07;;;;;;;2.63;0.38;;;;;;;12.22;65.09;95011.00;10427287;27;99270;-67
2022/04/24 17:16:11;;;;;;;1.20;0.50;;;;;;;12.26;64.62;95018.25;10429139;27;97445;-67
2022/04/24 17:21:14;;;;;;;0.60;0.50;;;;;;;12.27;64.59;95029.56;10429927;27;97341;-67
2022/04/24 17:26:18;;;;;;;0.50;0.40;;;;;;;12.16;65.16;95028.25;10436201;27;97562;-66
2022/04/24 17:31:21;;;;;;;0.60;0.40;;;;;;;12.11;65.92;95020.16;10429440;27;101662;-67
2022/04/24 17:36:24;;;;;;;0.63;0.50;;;;;;;12.07;65.76;95024.13;10434892;27;96987;-67
2022/04/24 17:41:32;;;;;;;1.73;0.60;;;;;;;12.02;64.49;95024.69;10431997;27;97902;-67
2022/04/24 17:46:36;;;;;;;1.65;0.47;;;;;;;12.01;65.37;95023.06;10434641;27;96862;-67
2022/04/24 17:51:39;;;;;;;0.83;0.53;;;;;;;11.91;66.51;95046.13;10448456;27;96899;-66
2022/04/24 17:56:44;;;;;;;0.60;0.40;;;;;;;11.82;65.60;95052.47;10450089;27;96976;-66
2022/04/24 18:01:49;;;;;;;0.73;0.30;;;;;;;11.78;65.76;95056.44;10448493;27;97001;-66
2022/04/24 18:06:53;;;;;;;0.80;0.52;;;;;;;11.79;66.71;95063.31;10444541;27;98911;-68
2022/04/24 18:11:58;;;;;;;9.80;7.07;;;;;;;11.80;66.25;95055.28;10447057;27;101392;-67
2022/04/24 18:17:01;;;;;;;24.70;11.57;;;;;;;11.83;65.25;95069.78;10448081;27;98732;-66
2022/04/24 18:22:04;;;;;;;2.38;1.42;;;;;;;11.80;65.55;95070.13;10442115;27;97295;-66
2022/04/24 18:27:09;;;;;;;1.30;0.90;;;;;;;11.76;66.70;95079.34;10447769;27;97935;-66
2022/04/24 18:32:14;;;;;;;1.17;1.08;;;;;;;11.66;66.98;95083.09;10445632;27;98661;-67
2022/04/24 18:42:38;;;;;;;0.63;0.50;;;;;;;11.42;66.94;95096.47;10446038;27;97760;-66
2022/04/24 18:47:41;;;;;;;1.13;0.60;;;;;;;11.38;66.81;95092.56;10447203;27;99160;-66
2022/04/24 18:52:44;;;;;;;1.65;0.60;;;;;;;11.33;67.15;95101.78;10440020;27;97054;-66
2022/04/24 18:57:49;;;;;;;0.75;0.60;;;;;;;11.27;68.18;95102.44;10443218;27;98662;-67
2022/04/24 19:02:58;;;;;;;0.82;0.57;;;;;;;11.24;68.72;95113.28;10444740;27;97448;-67
2022/04/24 19:08:01;;;;;;;0.80;0.60;;;;;;;11.16;69.47;95115.97;10442082;27;96999;-67
2022/04/24 19:13:06;;;;;;;1.88;0.80;;;;;;;11.07;68.43;95127.47;10436218;27;97157;-66
2022/04/24 19:18:09;;;;;;;3.33;0.60;;;;;;;11.08;68.74;95139.56;10444821;27;97957;-67
2022/04/24 19:23:12;;;;;;;1.08;0.70;;;;;;;11.04;69.44;95148.75;10444353;27;96788;-67
2022/04/24 19:28:16;;;;;;;1.00;0.80;;;;;;;11.03;69.79;95154.97;10443593;27;97995;-67
2022/04/24 19:33:19;;;;;;;1.87;0.70;;;;;;;11.04;69.80;95159.22;10439432;27;98625;-67
2022/04/24 19:38:22;;;;;;;0.98;0.70;;;;;;;10.95;69.54;95167.13;10442203;27;97939;-67
2022/04/24 19:43:27;;;;;;;0.90;0.60;;;;;;;10.91;69.44;95173.69;10441633;27;98795;-67
2022/04/24 19:53:50;;;;;;;1.92;0.77;;;;;;;10.87;69.89;95190.69;10438362;27;96880;-67
2022/04/24 19:58:54;;;;;;;1.38;0.70;;;;;;;10.85;70.26;95197.91;10436873;27;97519;-66
2022/04/24 20:03:58;;;;;;;1.20;0.93;;;;;;;10.80;71.50;95197.63;10435369;27;98328;-67
2022/04/24 20:09:01;;;;;;;2.78;1.00;;;;;;;10.65;72.42;95197.53;10447555;27;103930;-66
2022/04/24 20:14:06;;;;;;;1.50;0.90;;;;;;;10.56;72.12;95202.00;10443629;27;98089;-67
2022/04/24 20:19:10;;;;;;;0.65;0.50;;;;;;;10.49;73.12;95202.88;10440317;27;97123;-67
2022/04/24 20:24:13;;;;;;;1.65;1.00;;;;;;;10.42;72.94;95202.75;10442851;27;97384;-66
2022/04/24 20:29:18;;;;;;;1.40;1.10;;;;;;;10.37;73.60;95207.69;10441597;27;98737;-65
2022/04/24 20:34:21;;;;;;;1.92;1.25;;;;;;;10.30;73.88;95204.13;10443357;27;96899;-67
2022/04/24 20:39:30;;;;;;;32.28;20.15;;;;;;;10.22;74.46;95205.81;10440357;27;99142;-67
2022/04/24 20:44:34;;;;;;;1.55;0.70;;;;;;;10.20;75.56;95220.81;10439666;27;97308;-67
2022/04/24 20:49:39;;;;;;;1.30;0.98;;;;;;;10.17;75.20;95215.94;10436849;27;97189;-66
2022/04/24 20:54:43;;;;;;;1.38;0.65;;;;;;;10.14;75.68;95218.88;10438818;27;96963;-67
2022/04/24 20:59:47;;;;;;;1.88;0.80;;;;;;;10.13;75.89;95219.88;10440425;27;98497;-67
2022/04/24 21:04:51;;;;;;;2.47;1.38;;;;;;;10.12;76.23;95218.25;10436422;27;97260;-66
2022/04/24 21:09:54;;;;;;;3.97;2.90;;;;;;;10.08;76.46;95221.34;10442561;27;97237;-68
2022/04/24 21:14:58;;;;;;;3.10;1.95;;;;;;;10.07;77.08;95228.38;10442972;27;97854;-66
2022/04/24 21:20:22;;;;;;;2.25;1.10;;;;;;;9.92;77.11;95232.66;10446223;27;96953;-68
2022/04/24 21:25:26;;;;;;;1.27;0.88;;;;;;;9.80;77.40;95233.03;10448439;27;97292;-67
2022/04/24 21:30:30;;;;;;;0.70;0.70;;;;;;;9.72;77.41;95243.50;10443666;27;96852;-67
2022/04/24 21:35:34;;;;;;;0.63;0.63;;;;;;;9.76;77.32;95246.56;10453533;27;97353;-66
2022/04/24 21:40:37;;;;;;;1.45;0.80;;;;;;;9.76;77.20;95249.19;10452765;27;96931;-66
2022/04/24 21:45:41;;;;;;;2.15;1.17;;;;;;;9.75;77.45;95245.78;10455753;27;96951;-66
2022/04/24 21:50:45;;;;;;;1.17;0.85;;;;;;;9.71;78.03;95252.28;10453272;27;96889;-66
2022/04/24 21:55:49;;;;;;;2.03;1.00;;;;;;;9.63;77.97;95262.75;10452492;27;97498;-67
2022/04/24 22:01:15;;;;;;;0.80;0.80;;;;;;;9.60;78.51;95258.66;10454238;27;96800;-67
2022/04/24 22:06:18;;;;;;;1.20;0.70;;;;;;;9.60;78.31;95269.09;10453227;27;97099;-67
2022/04/24 22:11:21;;;;;;;1.48;0.73;;;;;;;9.61;78.43;95265.53;10454271;27;103347;-66
2022/04/24 22:16:27;;;;;;;2.78;0.90;;;;;;;9.62;78.33;95268.94;10448897;27;96909;-67
2022/04/24 22:26:50;;;;;;;0.93;0.50;;;;;;;9.60;78.15;95276.91;10439874;27;97214;-67
2022/04/24 22:31:55;;;;;;;1.45;0.80;;;;;;;9.60;77.45;95271.69;10447193;27;97396;-67
2022/04/24 22:36:58;;;;;;;0.40;0.30;;;;;;;9.50;77.77;95276.28;10454028;27;97286;-67
2022/04/24 22:42:01;;;;;;;0.80;0.40;;;;;;;9.43;77.63;95270.91;10452267;27;96828;-67
2022/04/24 22:47:11;;;;;;;0.85;0.30;;;;;;;9.39;78.50;95274.00;10450334;27;96652;-66
2022/04/24 22:52:14;;;;;;;0.53;0.40;;;;;;;9.31;78.27;95277.41;10448337;27;96906;-67
2022/04/24 22:57:17;;;;;;;1.50;0.40;;;;;;;9.35;77.70;95273.50;10455762;27;97299;-66
2022/04/24 23:02:21;;;;;;;0.70;0.13;;;;;;;9.34;78.45;95274.47;10442880;27;96819;-66
2022/04/24 23:07:25;;;;;;;1.02;0.43;;;;;;;9.33;78.43;95288.47;10448589;27;96959;-67
2022/04/24 23:12:28;;;;;;;0.38;0.30;;;;;;;9.27;78.25;95286.53;10443618;27;99151;-67
2022/04/24 23:22:49;;;;;;;0.70;0.45;;;;;;;9.27;78.26;95292.56;10445721;27;96776;-67
2022/04/24 23:27:52;;;;;;;0.40;0.30;;;;;;;9.26;78.57;95284.88;10463664;27;97036;-66
2022/04/24 23:32:56;;;;;;;0.30;0.30;;;;;;;9.24;78.36;95289.44;10434642;27;97499;-67
2022/04/24 23:37:59;;;;;;;0.57;0.50;;;;;;;9.23;78.89;95285.25;10429789;27;97007;-66
2022/04/24 23:43:02;;;;;;;1.10;0.65;;;;;;;9.23;78.95;95291.25;10425721;27;96919;-67
2022/04/24 23:48:07;;;;;;;0.47;0.45;;;;;;;9.21;79.08;95281.94;10449845;27;97030;-67
2022/04/24 23:53:10;;;;;;;3.20;0.73;;;;;;;9.23;79.21;95285.25;10443557;27;96986;-67
2022/04/24 23:58:12;;;;;;;1.65;0.70;;;;;;;9.20;79.85;95282.94;10454559;27;98776;-66
